Time;durP1;ratioP1;P1;durP2;ratioP2;P2;SDS_P1;SDS_P2;PMS_P1;PMS_P2;Temp;Humidity;BMP_temperature;BMP_pressure;BME280_temperature;BME280_humidity;BME280_pressure;Samples;Min_cycle;Max_cycle;Signal;HPM_P1;HPM_P2
2022/01/02 00:05:16;;;;;;;13.68;8.30;;;;;;;;;;6275173;22;20079;-80
2022/01/02 00:08:16;;;;;;;12.15;8.40;;;;;;;;;;6305006;22;20022;-82
2022/01/02 00:11:26;;;;;;;12.25;8.60;;;;;;;;;;6202509;23;20012;-82
2022/01/02 00:17:12;;;;;;;14.65;9.23;;;;;;;;;;6054409;23;20106;-81
2022/01/02 00:20:11;;;;;;;13.10;9.50;;;;;;;;;;6048675;23;20031;-82
2022/01/02 00:22:57;;;;;;;17.27;9.23;;;;;;;;;;6091037;23;20055;-82
2022/01/02 00:26:17;;;;;;;13.88;10.40;;;;;;;;;;5928038;24;20012;-83
2022/01/02 00:34:25;;;;;;;14.18;9.73;;;;;;;;;;6250148;22;20039;-81
2022/01/02 00:37:25;;;;;;;12.35;8.68;;;;;;;;;;6296477;22;20131;-80
2022/01/02 00:40:38;;;;;;;12.70;9.15;;;;;;;;;;6305689;22;20027;-81
2022/01/02 00:43:40;;;;;;;13.50;9.52;;;;;;;;;;6159441;23;19990;-82
2022/01/02 00:54:43;;;;;;;36.75;21.83;;;;;;;;;;6296297;22;20019;-83
2022/01/02 00:57:31;;;;;;;24.05;14.82;;;;;;;;;;6280534;22;19992;-83
2022/01/02 01:30:03;;;;;;;19.90;13.20;;;;;;;;;;6284314;22;20008;-82
2022/01/02 01:32:49;;;;;;;;;;;;;;;;;;6298547;22;20086;-82
2022/01/02 01:36:16;;;;;;;16.80;11.73;;;;;;;;;;6280240;22;19887;-82
2022/01/02 01:39:29;;;;;;;20.02;13.35;;;;;;;;;;6211913;23;20005;-83
2022/01/02 01:42:44;;;;;;;18.65;12.52;;;;;;;;;;6209138;23;20015;-82
2022/01/02 01:45:32;;;;;;;20.55;12.65;;;;;;;;;;6098569;23;20069;-78
2022/01/02 01:48:28;;;;;;;14.63;10.13;;;;;;;;;;6114027;23;20014;-80
2022/01/02 01:51:19;;;;;;;14.80;9.15;;;;;;;;;;6113058;23;20042;-82
2022/01/02 01:53:51;;;;;;;15.18;9.02;;;;;;;;;;6119050;23;20007;-79
2022/01/02 01:56:17;;;;;;;17.80;10.70;;;;;;;;;;6091786;23;20007;-78
2022/01/02 01:58:44;;;;;;;20.27;11.77;;;;;;;;;;6112450;23;20376;-70
2022/01/02 02:01:11;;;;;;;19.05;12.25;;;;;;;;;;6133497;23;20002;-70
2022/01/02 02:03:37;;;;;;;20.83;12.00;;;;;;;;;;6134139;23;20002;-78
2022/01/02 02:06:03;;;;;;;14.93;10.10;;;;;;;;;;6136130;23;20002;-71
2022/01/02 02:08:29;;;;;;;20.13;13.38;;;;;;;;;;6151030;23;20012;-71
2022/01/02 02:10:57;;;;;;;19.33;12.90;;;;;;;;;;6196331;23;20084;-75
2022/01/02 02:13:26;;;;;;;20.35;12.82;;;;;;;;;;6193805;23;20015;-70
2022/01/02 02:15:52;;;;;;;30.42;16.33;;;;;;;;;;6194410;23;20032;-70
2022/01/02 02:18:19;;;;;;;26.13;16.20;;;;;;;;;;6198407;23;20009;-71
2022/01/02 02:20:45;;;;;;;38.72;24.13;;;;;;;;;;6235513;23;20022;-71
2022/01/02 02:23:13;;;;;;;35.85;20.30;;;;;;;;;;6253494;23;19992;-74
2022/01/02 02:25:39;;;;;;;28.75;16.88;;;;;;;;;;6230371;23;20398;-71
2022/01/02 02:28:05;;;;;;;26.90;14.70;;;;;;;;;;6253210;22;20138;-78
2022/01/02 02:30:35;;;;;;;21.00;14.30;;;;;;;;;;6258850;23;20075;-71
2022/01/02 02:33:02;;;;;;;17.63;11.63;;;;;;;;;;6255172;23;20016;-72
2022/01/02 02:35:30;;;;;;;15.90;10.15;;;;;;;;;;6256128;23;20000;-70
2022/01/02 02:38:01;;;;;;;12.13;9.38;;;;;;;;;;6239250;23;20011;-78
2022/01/02 02:40:32;;;;;;;17.15;11.45;;;;;;;;;;6258891;23;20000;-70
2022/01/02 02:43:07;;;;;;;20.88;11.20;;;;;;;;;;6255712;23;20004;-72
2022/01/02 02:51:11;;;;;;;17.10;11.65;;;;;;;;;;6257999;23;20105;-75
2022/01/02 02:53:40;;;;;;;17.27;10.77;;;;;;;;;;6257709;23;20027;-69
2022/01/02 02:56:25;;;;;;;15.65;9.02;;;;;;;;;;6261525;23;20087;-77
2022/01/02 02:58:55;;;;;;;14.85;10.30;;;;;;;;;;6260175;23;20012;-70
2022/01/02 03:01:22;;;;;;;27.42;19.92;;;;;;;;;;6252287;23;20059;-77
2022/01/02 03:03:49;;;;;;;18.20;12.48;;;;;;;;;;6257346;23;20000;-78
2022/01/02 03:06:15;;;;;;;19.50;10.90;;;;;;;;;;6258048;23;20031;-71
2022/01/02 03:08:42;;;;;;;20.65;10.65;;;;;;;;;;6260259;23;19996;-76
2022/01/02 03:11:13;;;;;;;21.67;10.80;;;;;;;;;;6231955;23;20067;-70
2022/01/02 03:13:46;;;;;;;28.30;13.02;;;;;;;;;;6265327;23;19995;-77
2022/01/02 03:16:12;;;;;;;30.83;15.20;;;;;;;;;;6230097;23;20008;-78
2022/01/02 03:18:41;;;;;;;30.33;15.48;;;;;;;;;;6262113;23;20317;-78
2022/01/02 03:21:08;;;;;;;32.55;16.17;;;;;;;;;;6252787;23;20000;-70
2022/01/02 03:23:36;;;;;;;28.95;15.20;;;;;;;;;;6259374;23;20007;-78
2022/01/02 03:26:04;;;;;;;28.88;16.08;;;;;;;;;;6233623;23;20012;-77
2022/01/02 03:28:30;;;;;;;33.58;18.08;;;;;;;;;;6231393;23;20062;-74
2022/01/02 03:31:02;;;;;;;29.35;16.77;;;;;;;;;;6261099;23;20039;-70
2022/01/02 03:33:28;;;;;;;22.75;12.70;;;;;;;;;;6250566;23;20084;-72
2022/01/02 03:35:54;;;;;;;20.90;12.20;;;;;;;;;;6255021;23;20016;-73
2022/01/02 03:38:20;;;;;;;13.55;9.75;;;;;;;;;;6256931;23;20020;-76
2022/01/02 03:40:46;;;;;;;16.50;9.80;;;;;;;;;;6255346;23;20014;-73
2022/01/02 03:43:12;;;;;;;13.38;9.07;;;;;;;;;;6251876;23;20053;-77
2022/01/02 03:45:38;;;;;;;13.32;8.25;;;;;;;;;;6256845;23;20027;-71
2022/01/02 03:48:06;;;;;;;12.45;8.65;;;;;;;;;;6256066;23;19996;-76
2022/01/02 03:50:33;;;;;;;12.90;8.00;;;;;;;;;;6234185;23;20011;-70
2022/01/02 03:52:59;;;;;;;11.65;7.97;;;;;;;;;;6253251;23;20439;-75
2022/01/02 03:55:25;;;;;;;12.60;8.20;;;;;;;;;;6255392;23;20003;-71
2022/01/02 03:57:51;;;;;;;12.30;8.30;;;;;;;;;;6259496;23;20439;-75
2022/01/02 04:00:21;;;;;;;15.85;9.45;;;;;;;;;;6224096;23;20054;-70
2022/01/02 04:02:47;;;;;;;16.48;11.15;;;;;;;;;;6248918;23;20024;-71
2022/01/02 04:05:14;;;;;;;16.75;10.60;;;;;;;;;;6254156;23;20007;-73
2022/01/02 04:07:41;;;;;;;17.42;10.90;;;;;;;;;;6257629;23;20322;-70
2022/01/02 04:10:12;;;;;;;22.30;11.75;;;;;;;;;;6267383;23;20022;-79
2022/01/02 04:12:50;;;;;;;16.85;11.52;;;;;;;;;;6245316;23;20146;-78
2022/01/02 04:15:17;;;;;;;19.13;12.25;;;;;;;;;;6236519;23;20034;-78
2022/01/02 04:17:43;;;;;;;18.10;10.75;;;;;;;;;;6258238;23;20004;-78
2022/01/02 04:20:11;;;;;;;14.43;10.10;;;;;;;;;;6256336;23;19997;-70
2022/01/02 04:22:37;;;;;;;15.68;9.25;;;;;;;;;;6254651;23;19997;-70
2022/01/02 04:25:04;;;;;;;11.75;8.38;;;;;;;;;;6256943;23;20012;-78
2022/01/02 04:27:30;;;;;;;10.20;7.53;;;;;;;;;;6255685;23;20453;-71
2022/01/02 04:29:56;;;;;;;11.88;7.50;;;;;;;;;;6255509;23;20015;-70
2022/01/02 04:32:22;;;;;;;12.65;7.93;;;;;;;;;;6250835;23;20019;-77
2022/01/02 04:34:48;;;;;;;12.95;8.73;;;;;;;;;;6253781;23;20035;-70
2022/01/02 04:37:14;;;;;;;12.65;8.43;;;;;;;;;;6254566;23;20011;-70
2022/01/02 04:39:44;;;;;;;13.18;8.88;;;;;;;;;;6251698;23;20075;-73
2022/01/02 04:42:10;;;;;;;16.08;11.48;;;;;;;;;;6255266;23;20004;-78
2022/01/02 04:44:36;;;;;;;15.63;10.80;;;;;;;;;;6254959;23;19997;-70
2022/01/02 04:47:02;;;;;;;13.55;9.52;;;;;;;;;;6254241;23;20008;-71
2022/01/02 04:49:28;;;;;;;15.00;9.45;;;;;;;;;;6254490;23;20082;-76
2022/01/02 04:51:54;;;;;;;13.10;8.85;;;;;;;;;;6254734;23;20035;-77
2022/01/02 04:54:23;;;;;;;16.00;9.65;;;;;;;;;;6252033;23;19998;-77
2022/01/02 04:56:49;;;;;;;13.65;9.02;;;;;;;;;;6251896;23;20014;-75
2022/01/02 04:59:18;;;;;;;13.10;8.38;;;;;;;;;;6250063;23;20083;-77
2022/01/02 05:01:44;;;;;;;13.30;9.00;;;;;;;;;;6249621;23;20426;-70
2022/01/02 05:04:11;;;;;;;12.73;8.27;;;;;;;;;;6249966;23;20441;-71
2022/01/02 05:06:37;;;;;;;15.27;8.52;;;;;;;;;;6252006;23;20440;-70
2022/01/02 05:09:06;;;;;;;12.57;8.23;;;;;;;;;;6251755;23;20011;-76
2022/01/02 05:11:32;;;;;;;11.13;8.30;;;;;;;;;;6253698;23;20016;-73
2022/01/02 05:13:58;;;;;;;15.25;8.35;;;;;;;;;;6250878;23;19997;-75
2022/01/02 05:16:26;;;;;;;12.00;8.38;;;;;;;;;;6249801;23;20322;-78
2022/01/02 05:18:52;;;;;;;15.10;9.05;;;;;;;;;;6255448;23;20004;-74
2022/01/02 05:21:18;;;;;;;14.98;9.35;;;;;;;;;;6257635;23;20004;-71
2022/01/02 05:23:45;;;;;;;15.05;9.50;;;;;;;;;;6257501;23;19996;-70
2022/01/02 05:26:11;;;;;;;13.20;9.45;;;;;;;;;;6257090;23;20007;-77
2022/01/02 05:28:37;;;;;;;17.58;10.45;;;;;;;;;;6251529;23;20004;-78
2022/01/02 05:31:03;;;;;;;21.90;12.85;;;;;;;;;;6254419;23;20008;-69
2022/01/02 05:33:29;;;;;;;26.52;16.58;;;;;;;;;;6259113;23;20035;-76
2022/01/02 05:35:55;;;;;;;28.17;19.35;;;;;;;;;;6257065;23;19984;-78
2022/01/02 05:38:21;;;;;;;22.27;16.17;;;;;;;;;;6259647;23;20034;-77
2022/01/02 05:40:50;;;;;;;24.83;17.10;;;;;;;;;;6257334;23;20011;-70
2022/01/02 05:43:16;;;;;;;28.27;18.52;;;;;;;;;;6261248;23;20023;-70
2022/01/02 05:45:48;;;;;;;29.85;21.42;;;;;;;;;;6263038;23;19984;-76
2022/01/02 05:48:14;;;;;;;30.25;19.63;;;;;;;;;;6252734;23;19996;-77
2022/01/02 05:50:40;;;;;;;32.20;22.42;;;;;;;;;;6248300;23;20000;-71
2022/01/02 05:53:06;;;;;;;32.67;22.05;;;;;;;;;;6246853;23;20008;-74
2022/01/02 05:55:32;;;;;;;30.85;20.02;;;;;;;;;;6247975;23;19992;-70
2022/01/02 05:58:00;;;;;;;35.35;21.45;;;;;;;;;;6250389;23;20017;-71
2022/01/02 06:00:26;;;;;;;28.63;18.10;;;;;;;;;;6250198;23;20003;-77
2022/01/02 06:02:52;;;;;;;31.65;19.40;;;;;;;;;;6251470;23;20000;-77
2022/01/02 06:05:18;;;;;;;26.42;16.42;;;;;;;;;;6250578;23;20004;-77
2022/01/02 06:07:44;;;;;;;20.90;13.35;;;;;;;;;;6249580;23;20003;-70
2022/01/02 06:10:10;;;;;;;25.73;15.95;;;;;;;;;;6249033;23;20001;-78
2022/01/02 06:12:37;;;;;;;28.48;17.90;;;;;;;;;;6249837;23;20078;-71
2022/01/02 06:15:03;;;;;;;27.35;16.80;;;;;;;;;;6252956;23;20001;-70
2022/01/02 06:17:29;;;;;;;34.25;20.52;;;;;;;;;;6252182;23;20012;-71
2022/01/02 06:19:57;;;;;;;27.73;16.20;;;;;;;;;;6252097;23;20004;-76
2022/01/02 06:22:26;;;;;;;34.80;18.50;;;;;;;;;;6246559;23;20000;-73
2022/01/02 06:24:52;;;;;;;37.03;20.55;;;;;;;;;;6250171;23;20445;-77
2022/01/02 06:27:19;;;;;;;32.95;17.38;;;;;;;;;;6252598;23;20012;-70
2022/01/02 06:29:46;;;;;;;25.85;15.68;;;;;;;;;;6251569;23;20076;-76
2022/01/02 06:32:12;;;;;;;29.48;14.48;;;;;;;;;;6248683;23;20015;-75
2022/01/02 06:34:38;;;;;;;22.50;12.35;;;;;;;;;;6248780;23;20001;-75
2022/01/02 06:37:04;;;;;;;18.92;11.02;;;;;;;;;;6252341;23;20011;-76
2022/01/02 06:39:30;;;;;;;21.00;13.05;;;;;;;;;;6252958;23;20027;-78
2022/01/02 06:41:56;;;;;;;23.70;12.02;;;;;;;;;;6253124;23;19992;-78
2022/01/02 06:44:22;;;;;;;16.48;9.75;;;;;;;;;;6255157;23;20011;-78
2022/01/02 06:46:48;;;;;;;15.27;8.95;;;;;;;;;;6256382;23;19976;-74
2022/01/02 06:49:14;;;;;;;15.55;8.65;;;;;;;;;;6252727;23;20000;-74
2022/01/02 06:51:40;;;;;;;14.10;8.35;;;;;;;;;;6228686;23;20012;-76
2022/01/02 06:54:08;;;;;;;11.40;7.53;;;;;;;;;;6259588;23;19996;-79
2022/01/02 06:56:39;;;;;;;14.07;8.70;;;;;;;;;;6263329;23;20008;-80
2022/01/02 06:59:42;;;;;;;14.90;9.18;;;;;;;;;;6269777;22;20012;-82
2022/01/02 07:02:34;;;;;;;13.95;8.98;;;;;;;;;;6198846;23;20439;-79
2022/01/02 07:05:00;;;;;;;13.60;9.50;;;;;;;;;;6148042;23;20046;-77
2022/01/02 07:07:29;;;;;;;16.40;9.38;;;;;;;;;;6177504;23;20001;-78
2022/01/02 07:10:08;;;;;;;24.48;12.32;;;;;;;;;;6174697;23;19997;-80
2022/01/02 07:12:37;;;;;;;19.30;11.52;;;;;;;;;;6174869;23;19997;-78
2022/01/02 07:18:12;;;;;;;43.63;23.45;;;;;;;;;;6179426;23;20037;-75
2022/01/02 07:20:47;;;;;;;34.13;17.02;;;;;;;;;;6178807;23;19994;-80
2022/01/02 07:23:39;;;;;;;35.08;19.50;;;;;;;;;;6180498;23;20006;-82
2022/01/02 07:26:16;;;;;;;33.10;18.75;;;;;;;;;;6177089;23;20149;-82
2022/01/02 07:29:04;;;;;;;29.83;17.83;;;;;;;;;;6155013;23;20017;-80
2022/01/02 07:31:31;;;;;;;31.00;16.80;;;;;;;;;;6144956;23;20430;-75
2022/01/02 07:33:58;;;;;;;33.00;19.48;;;;;;;;;;6165662;23;20060;-75
2022/01/02 07:36:44;;;;;;;41.65;21.35;;;;;;;;;;6169722;23;20064;-79
2022/01/02 07:39:33;;;;;;;47.22;23.77;;;;;;;;;;6166929;23;20005;-78
2022/01/02 07:42:09;;;;;;;45.95;24.17;;;;;;;;;;6164359;23;20009;-79
2022/01/02 07:44:58;;;;;;;50.92;24.80;;;;;;;;;;6106580;23;20081;-79
2022/01/02 07:47:32;;;;;;;33.20;19.95;;;;;;;;;;6090687;23;20012;-77
2022/01/02 07:49:58;;;;;;;27.67;16.45;;;;;;;;;;6136519;23;20093;-77
2022/01/02 07:52:25;;;;;;;21.52;12.80;;;;;;;;;;6141922;23;20031;-79
2022/01/02 07:54:51;;;;;;;21.92;13.73;;;;;;;;;;6166610;23;20016;-78
2022/01/02 07:57:46;;;;;;;18.60;11.90;;;;;;;;;;6184994;23;20072;-80
2022/01/02 08:00:32;;;;;;;19.50;12.90;;;;;;;;;;6108758;23;20063;-75
2022/01/02 08:02:58;;;;;;;28.00;13.98;;;;;;;;;;6098156;23;20013;-75
2022/01/02 08:05:48;;;;;;;73.95;12.52;;;;;;;;;;6110558;23;20013;-79
2022/01/02 08:08:38;;;;;;;20.13;10.38;;;;;;;;;;6065220;23;20007;-81
2022/01/02 08:11:05;;;;;;;15.35;7.85;;;;;;;;;;6035391;23;20022;-75
2022/01/02 08:13:32;;;;;;;15.35;7.32;;;;;;;;;;6076064;23;20044;-74
2022/01/02 08:15:59;;;;;;;17.25;9.70;;;;;;;;;;6079594;23;20019;-72
2022/01/02 08:18:26;;;;;;;16.40;10.35;;;;;;;;;;6073901;23;20035;-72
2022/01/02 08:20:52;;;;;;;31.58;22.48;;;;;;;;;;6070000;23;20010;-77
2022/01/02 08:23:19;;;;;;;31.42;20.00;;;;;;;;;;6073761;23;20007;-77
2022/01/02 08:25:49;;;;;;;23.42;13.00;;;;;;;;;;6070476;23;20006;-76
2022/01/02 08:28:15;;;;;;;28.38;15.80;;;;;;;;;;6047612;23;20125;-76
2022/01/02 08:30:47;;;;;;;20.77;11.27;;;;;;;;;;6112507;23;20025;-80
2022/01/02 08:33:26;;;;;;;17.27;10.52;;;;;;;;;;6200586;23;20125;-78
2022/01/02 08:35:55;;;;;;;16.13;9.93;;;;;;;;;;6122814;23;20043;-79
2022/01/02 08:38:49;;;;;;;19.83;12.07;;;;;;;;;;6207510;23;20049;-79
2022/01/02 08:41:23;;;;;;;19.40;9.13;;;;;;;;;;6231914;23;20069;-77
2022/01/02 08:43:55;;;;;;;12.95;7.43;;;;;;;;;;6228578;23;20001;-77
2022/01/02 08:46:28;;;;;;;10.18;6.70;;;;;;;;;;6226564;23;20000;-77
2022/01/02 08:49:27;;;;;;;10.15;6.13;;;;;;;;;;6234835;23;20001;-82
2022/01/02 08:54:31;;;;;;;9.10;6.75;;;;;;;;;;6179939;22;20856;-77
2022/01/02 08:56:59;;;;;;;8.13;5.53;;;;;;;;;;6258990;23;20534;-78
2022/01/02 09:02:32;;;;;;;9.68;6.13;;;;;;;;;;6272842;22;20034;-77
2022/01/02 09:04:58;;;;;;;10.70;5.93;;;;;;;;;;6266981;23;19996;-72
2022/01/02 09:07:27;;;;;;;12.77;5.63;;;;;;;;;;6263308;23;20007;-74
2022/01/02 09:09:54;;;;;;;11.02;5.70;;;;;;;;;;6263164;23;19996;-77
2022/01/02 09:12:20;;;;;;;11.98;5.57;;;;;;;;;;6260476;23;20038;-78
2022/01/02 09:14:46;;;;;;;12.52;6.32;;;;;;;;;;6266863;23;20027;-75
2022/01/02 09:17:12;;;;;;;12.65;6.03;;;;;;;;;;6261444;23;20011;-76
2022/01/02 09:20:07;;;;;;;20.27;7.05;;;;;;;;;;6256735;23;20367;-80
2022/01/02 09:22:34;;;;;;;9.57;5.45;;;;;;;;;;6266283;23;20062;-77
2022/01/02 09:25:01;;;;;;;9.50;5.43;;;;;;;;;;6262021;23;20010;-76
2022/01/02 09:27:27;;;;;;;11.43;5.72;;;;;;;;;;6265141;23;20000;-78
2022/01/02 09:29:53;;;;;;;9.88;5.32;;;;;;;;;;6257455;23;20015;-75
2022/01/02 09:32:19;;;;;;;13.18;5.57;;;;;;;;;;6234436;23;20011;-77
2022/01/02 09:34:54;;;;;;;11.38;5.00;;;;;;;;;;6235954;23;20012;-74
2022/01/02 09:37:20;;;;;;;13.85;4.82;;;;;;;;;;6266504;23;20012;-74
2022/01/02 09:39:46;;;;;;;11.43;5.40;;;;;;;;;;6265528;23;19984;-74
2022/01/02 09:42:12;;;;;;;7.50;4.85;;;;;;;;;;6258172;23;20019;-77
2022/01/02 09:44:40;;;;;;;7.22;4.70;;;;;;;;;;6263276;23;20001;-77
2022/01/02 09:47:14;;;;;;;15.13;8.02;;;;;;;;;;6263731;23;20008;-78
2022/01/02 09:50:08;;;;;;;15.43;9.98;;;;;;;;;;6267013;23;19995;-76
2022/01/02 09:52:35;;;;;;;12.00;6.55;;;;;;;;;;6264600;23;20000;-76
2022/01/02 09:55:01;;;;;;;11.80;6.97;;;;;;;;;;6267172;23;20027;-75
2022/01/02 09:57:27;;;;;;;9.93;6.50;;;;;;;;;;6260395;23;19996;-78
2022/01/02 09:59:55;;;;;;;10.48;7.03;;;;;;;;;;6268435;23;19996;-76
2022/01/02 10:02:22;;;;;;;12.15;7.10;;;;;;;;;;6239067;23;20008;-76
2022/01/02 10:04:48;;;;;;;10.50;6.65;;;;;;;;;;6263330;23;20004;-77
2022/01/02 10:07:36;;;;;;;11.20;6.57;;;;;;;;;;6262469;23;20000;-77
2022/01/02 10:10:09;;;;;;;10.65;7.35;;;;;;;;;;6262855;23;19991;-77
2022/01/02 10:12:44;;;;;;;9.57;6.90;;;;;;;;;;6259577;23;20133;-77
2022/01/02 10:15:20;;;;;;;11.55;7.05;;;;;;;;;;6256715;23;20016;-77
2022/01/02 10:18:10;;;;;;;16.50;7.95;;;;;;;;;;6262889;23;20363;-77
2022/01/02 10:20:45;;;;;;;13.77;7.32;;;;;;;;;;6143270;23;20077;-78
2022/01/02 10:23:40;;;;;;;18.65;7.97;;;;;;;;;;6134372;23;20013;-77
2022/01/02 10:26:09;;;;;;;14.30;7.80;;;;;;;;;;6141551;23;20034;-76
2022/01/02 10:28:43;;;;;;;11.57;7.63;;;;;;;;;;6135211;23;20010;-77
2022/01/02 10:31:34;;;;;;;;;;;;;;;;;;6112176;23;20018;-77
2022/01/02 10:34:07;;;;;;;14.73;7.63;;;;;;;;;;6110977;23;19921;-78
2022/01/02 10:36:47;;;;;;;13.73;7.30;;;;;;;;;;6111406;23;20010;-76
2022/01/02 10:42:21;;;;;;;14.98;7.25;;;;;;;;;;6243259;22;20024;-79
2022/01/02 10:47:59;;;;;;;11.57;7.50;;;;;;;;;;6304096;22;20014;-81
2022/01/02 10:50:29;;;;;;;13.05;7.72;;;;;;;;;;6301805;22;20004;-78
2022/01/02 10:53:13;;;;;;;13.20;7.47;;;;;;;;;;6294861;22;20003;-76
2022/01/02 10:55:48;;;;;;;15.43;8.55;;;;;;;;;;6293382;22;20044;-78
2022/01/02 10:58:15;;;;;;;18.88;10.52;;;;;;;;;;6294663;22;20004;-78
2022/01/02 11:01:09;;;;;;;13.43;8.48;;;;;;;;;;6266935;22;20007;-77
2022/01/02 11:03:35;;;;;;;;;;;;;;;;;;6292580;22;20003;-74
2022/01/02 11:06:13;;;;;;;15.48;7.55;;;;;;;;;;6264320;22;19899;-77
2022/01/02 11:08:49;;;;;;;11.10;6.72;;;;;;;;;;6267946;22;20011;-77
2022/01/02 11:11:23;;;;;;;16.23;8.68;;;;;;;;;;6271404;22;20030;-79
2022/01/02 11:14:01;;;;;;;17.90;11.18;;;;;;;;;;6293143;22;20019;-75
2022/01/02 11:16:27;;;;;;;14.20;9.00;;;;;;;;;;6289894;22;19996;-77
2022/01/02 11:18:56;;;;;;;18.13;10.73;;;;;;;;;;6287280;22;20003;-79
2022/01/02 11:21:37;;;;;;;;;;;;;;;;;;;;;
2022/01/02 11:24:51;;;;;;;;;;;;;;;;;;;;;
2022/01/02 11:27:24;;;;;;;17.13;9.38;;;;;;;;;;6224800;22;20225;-76
2022/01/02 11:29:53;;;;;;;11.52;8.07;;;;;;;;;;6301991;22;20066;-77
2022/01/02 11:32:48;;;;;;;14.05;8.80;;;;;;;;;;6264331;22;20022;-77
2022/01/02 11:35:56;;;;;;;12.38;7.10;;;;;;;;;;6269499;22;20065;-76
2022/01/02 11:38:34;;;;;;;10.75;7.22;;;;;;;;;;6269273;22;20033;-78
2022/01/02 11:41:05;;;;;;;13.05;7.43;;;;;;;;;;6246020;22;19988;-76
2022/01/02 11:43:46;;;;;;;14.73;6.87;;;;;;;;;;6268453;22;20082;-77
2022/01/02 11:46:25;;;;;;;13.45;6.65;;;;;;;;;;6208705;23;20009;-77
2022/01/02 11:49:15;;;;;;;11.02;6.10;;;;;;;;;;6204693;23;20092;-80
2022/01/02 11:51:59;;;;;;;16.13;7.05;;;;;;;;;;6198194;22;20009;-76
2022/01/02 11:54:41;;;;;;;12.82;7.47;;;;;;;;;;6236087;23;19996;-77
2022/01/02 11:57:14;;;;;;;14.65;9.07;;;;;;;;;;6237056;23;20000;-73
2022/01/02 11:59:42;;;;;;;19.48;9.63;;;;;;;;;;6263959;23;20011;-75
2022/01/02 12:02:33;;;;;;;20.73;8.82;;;;;;;;;;6240011;23;20088;-76
2022/01/02 12:05:34;;;;;;;;;;;;;;;;;;;;;
2022/01/02 12:08:34;;;;;;;15.43;8.60;;;;;;;;;;6188855;23;20008;-78
2022/01/02 12:11:30;;;;;;;18.80;10.05;;;;;;;;;;6091312;23;20010;-78
2022/01/02 12:16:36;;;;;;;14.13;9.52;;;;;;;;;;6281595;22;20023;-80
2022/01/02 12:19:22;;;;;;;14.02;9.35;;;;;;;;;;6233898;23;20035;-78
2022/01/02 12:22:10;;;;;;;12.38;8.57;;;;;;;;;;6206760;23;20004;-77
2022/01/02 12:24:36;;;;;;;17.30;9.80;;;;;;;;;;6226234;23;20062;-77
2022/01/02 12:27:14;;;;;;;15.70;9.70;;;;;;;;;;6200384;23;20005;-76
2022/01/02 12:29:40;;;;;;;17.45;10.38;;;;;;;;;;6210628;23;20036;-79
2022/01/02 12:32:11;;;;;;;19.38;11.57;;;;;;;;;;6238215;23;20011;-77
2022/01/02 12:34:40;;;;;;;18.40;12.43;;;;;;;;;;6237217;23;20012;-78
2022/01/02 12:37:10;;;;;;;15.52;10.65;;;;;;;;;;6236990;23;20005;-79
2022/01/02 12:39:40;;;;;;;13.57;9.52;;;;;;;;;;6211651;23;20121;-77
2022/01/02 12:42:32;;;;;;;14.18;9.63;;;;;;;;;;6237768;23;20008;-81
2022/01/02 12:45:03;;;;;;;14.90;9.93;;;;;;;;;;6273945;22;20012;-77
2022/01/02 12:47:33;;;;;;;22.20;10.57;;;;;;;;;;6274301;22;20019;-77
2022/01/02 12:50:00;;;;;;;14.35;9.50;;;;;;;;;;6301191;22;19984;-78
2022/01/02 12:52:31;;;;;;;16.05;10.38;;;;;;;;;;6274845;22;20082;-77
2022/01/02 12:54:57;;;;;;;15.88;9.32;;;;;;;;;;6273751;22;20008;-80
2022/01/02 12:57:24;;;;;;;14.50;10.13;;;;;;;;;;6274536;22;20106;-77
2022/01/02 12:59:57;;;;;;;16.25;9.85;;;;;;;;;;6274278;22;19984;-77
2022/01/02 13:02:29;;;;;;;14.35;9.70;;;;;;;;;;6298801;22;20004;-78
2022/01/02 13:05:03;;;;;;;13.38;8.77;;;;;;;;;;6297630;22;20052;-77
2022/01/02 13:07:37;;;;;;;12.30;8.15;;;;;;;;;;6247907;22;19996;-79
2022/01/02 13:10:13;;;;;;;14.60;9.98;;;;;;;;;;6273391;22;20007;-78
2022/01/02 13:12:41;;;;;;;16.13;8.75;;;;;;;;;;6296870;22;20043;-77
2022/01/02 13:15:17;;;;;;;15.15;9.07;;;;;;;;;;6270531;22;20016;-78
2022/01/02 13:17:54;;;;;;;15.68;10.80;;;;;;;;;;6271214;22;20323;-78
2022/01/02 13:20:21;;;;;;;15.88;10.43;;;;;;;;;;6285653;22;20006;-79
2022/01/02 13:22:56;;;;;;;23.10;12.13;;;;;;;;;;6292296;22;20018;-78
2022/01/02 13:25:33;;;;;;;21.00;12.35;;;;;;;;;;6293678;22;20003;-78
2022/01/02 13:28:10;;;;;;;24.83;9.13;;;;;;;;;;6231247;23;19989;-78
2022/01/02 13:31:00;;;;;;;14.07;6.78;;;;;;;;;;6232244;23;20009;-75
2022/01/02 13:33:35;;;;;;;17.30;8.07;;;;;;;;;;6109983;23;20025;-77
2022/01/02 13:36:08;;;;;;;22.20;10.93;;;;;;;;;;6116247;23;20017;-76
2022/01/02 13:38:49;;;;;;;24.23;8.63;;;;;;;;;;6114686;23;20482;-75
2022/01/02 13:41:15;;;;;;;16.95;8.18;;;;;;;;;;6087059;23;20030;-76
2022/01/02 13:43:44;;;;;;;14.43;8.10;;;;;;;;;;6117431;23;20014;-77
2022/01/02 13:46:10;;;;;;;14.43;7.55;;;;;;;;;;6111293;23;20010;-75
2022/01/02 13:48:36;;;;;;;12.70;5.63;;;;;;;;;;6115256;23;20014;-76
2022/01/02 13:51:05;;;;;;;10.90;5.55;;;;;;;;;;6113006;23;20024;-76
2022/01/02 13:53:33;;;;;;;16.08;8.55;;;;;;;;;;6108777;23;20020;-76
2022/01/02 13:56:06;;;;;;;15.45;10.05;;;;;;;;;;6107843;23;20062;-76
2022/01/02 13:58:44;;;;;;;14.95;8.32;;;;;;;;;;6121052;23;20006;-78
2022/01/02 14:01:16;;;;;;;15.40;7.47;;;;;;;;;;6119098;23;20041;-76
2022/01/02 14:03:49;;;;;;;16.33;7.18;;;;;;;;;;6119078;23;19986;-79
2022/01/02 14:06:17;;;;;;;;;;;;;;;;;;6149053;23;20029;-77
2022/01/02 14:08:44;;;;;;;17.05;7.32;;;;;;;;;;6139378;23;19932;-75
2022/01/02 14:11:35;;;;;;;12.70;7.87;;;;;;;;;;6275456;22;20004;-76
2022/01/02 14:14:09;;;;;;;16.17;7.63;;;;;;;;;;6274058;22;20015;-73
2022/01/02 14:19:34;;;;;;;17.80;8.97;;;;;;;;;;6309433;22;20014;-76
2022/01/02 14:22:11;;;;;;;21.77;11.00;;;;;;;;;;6247557;22;20011;-78
2022/01/02 14:24:52;;;;;;;22.00;11.30;;;;;;;;;;6300594;22;19988;-81
2022/01/02 14:30:21;;;;;;;15.15;9.55;;;;;;;;;;6269508;22;20020;-79
2022/01/02 14:40:14;;;;;;;;;;;;;;;;;;;;;
2022/01/02 14:42:23;;;;;;;58.95;36.85;;;;;;;;;;6162945;23;20033;-80
2022/01/02 14:45:23;;;;;;;69.97;42.63;;;;;;;;;;6181908;23;20009;-80
2022/01/02 14:48:10;;;;;;;167.25;113.00;;;;;;;;;;6179628;23;20444;-79
2022/01/02 14:53:40;;;;;;;204.23;134.52;;;;;;;;;;6176127;23;20014;-76
2022/01/02 14:56:09;;;;;;;246.38;167.00;;;;;;;;;;6151159;23;20028;-79
2022/01/02 14:58:59;;;;;;;65.93;41.22;;;;;;;;;;6158460;23;20013;-80
2022/01/02 15:01:31;;;;;;;25.00;14.65;;;;;;;;;;6201439;23;20008;-74
2022/01/02 15:03:57;;;;;;;24.27;14.35;;;;;;;;;;6164776;23;20013;-74
2022/01/02 15:06:25;;;;;;;25.17;15.02;;;;;;;;;;6192165;23;20016;-74
2022/01/02 15:08:51;;;;;;;27.90;15.98;;;;;;;;;;6164634;23;20015;-75
2022/01/02 15:11:23;;;;;;;28.50;17.15;;;;;;;;;;6166828;23;20525;-72
2022/01/02 15:13:49;;;;;;;33.22;21.33;;;;;;;;;;6191147;23;20370;-75
2022/01/02 15:16:19;;;;;;;34.30;20.02;;;;;;;;;;6221046;22;20007;-74
2022/01/02 15:18:45;;;;;;;29.50;20.02;;;;;;;;;;6279057;22;20014;-75
2022/01/02 15:21:15;;;;;;;40.10;27.20;;;;;;;;;;6282751;22;20002;-79
2022/01/02 15:23:58;;;;;;;37.03;23.90;;;;;;;;;;6274514;22;20059;-80
2022/01/02 15:26:30;;;;;;;;;;;;;;;;;;6297967;22;20004;-74
2022/01/02 15:29:01;;;;;;;30.67;19.13;;;;;;;;;;6259781;22;19918;-76
2022/01/02 15:31:28;;;;;;;36.35;25.73;;;;;;;;;;6291749;22;20004;-77
2022/01/02 15:33:56;;;;;;;30.02;19.30;;;;;;;;;;6290012;22;20003;-77
2022/01/02 15:36:24;;;;;;;30.98;20.88;;;;;;;;;;6287362;22;20437;-74
2022/01/02 15:38:50;;;;;;;36.53;21.25;;;;;;;;;;6285828;22;20011;-79
2022/01/02 15:41:19;;;;;;;32.88;18.65;;;;;;;;;;6286340;22;19994;-78
2022/01/02 15:43:45;;;;;;;28.50;16.17;;;;;;;;;;6289262;22;20086;-75
2022/01/02 15:46:12;;;;;;;22.92;15.18;;;;;;;;;;6285626;22;20078;-79
2022/01/02 15:48:42;;;;;;;22.55;14.43;;;;;;;;;;6285252;22;20004;-74
2022/01/02 15:51:08;;;;;;;22.65;15.35;;;;;;;;;;6285027;22;19996;-74
2022/01/02 15:53:34;;;;;;;22.80;14.85;;;;;;;;;;6284999;22;20035;-74
2022/01/02 15:56:00;;;;;;;23.63;15.60;;;;;;;;;;6293986;22;20019;-75
2022/01/02 15:58:31;;;;;;;26.60;15.55;;;;;;;;;;6293647;22;19980;-78
2022/01/02 16:00:58;;;;;;;24.75;16.83;;;;;;;;;;6298184;22;19996;-74
2022/01/02 16:03:24;;;;;;;25.23;16.13;;;;;;;;;;6288913;22;20002;-74
2022/01/02 16:05:53;;;;;;;27.67;17.00;;;;;;;;;;6292890;22;20023;-74
2022/01/02 16:08:20;;;;;;;26.92;16.88;;;;;;;;;;6266740;22;20011;-75
2022/01/02 16:10:48;;;;;;;29.05;18.55;;;;;;;;;;6295630;22;20015;-74
2022/01/02 16:13:15;;;;;;;37.75;22.77;;;;;;;;;;6272023;22;20016;-74
2022/01/02 16:15:43;;;;;;;29.20;18.48;;;;;;;;;;6292183;22;20027;-74
2022/01/02 16:18:09;;;;;;;31.48;17.63;;;;;;;;;;6296742;22;20002;-74
2022/01/02 16:20:41;;;;;;;25.90;17.38;;;;;;;;;;6273374;22;20024;-73
2022/01/02 16:23:07;;;;;;;27.38;17.58;;;;;;;;;;6269230;22;20004;-76
2022/01/02 16:25:36;;;;;;;26.15;17.27;;;;;;;;;;6293390;22;19999;-76
2022/01/02 16:28:02;;;;;;;31.00;19.23;;;;;;;;;;6294129;22;20014;-77
2022/01/02 16:30:29;;;;;;;28.20;18.63;;;;;;;;;;6286215;22;20026;-76
2022/01/02 16:32:55;;;;;;;30.25;20.30;;;;;;;;;;6285921;22;19999;-77